Back to Top

Language: 

My Weather Underground Personal Weather Station Historical Data with Graphs...

Delerius Weather Station Historical Data
Daily Summary for May 22, 2017 Units:  English    Metric   Both
« Previous Day
Next Day »
Daily Weekly Monthly Yearly Custom
  High: Low: Average:
Temperature: 72.7 °F 48.9 °F 61 °F
Dew Point: 56.3 °F 45.4 °F 51.2 °F
Humidity: 94 % 50 % 72 %
Wind Speed: 13.0 mph 0.0 mph 5.7 mph
Wind Gust: 26.0 mph - -
Wind:- - South
Pressure: 30.10 in 29.86 in -
Precipitation: 0.00 in    
Historical Graphs
 
 
Tabular Data for May 22, 2017
Time Temperature Dew Point Pressure Wind Wind Speed Wind Gust Humidity Rainfall Rate (Hourly) solar Conditions
00:01 50.5 °F 46.8 °F 30.10 in Calm   2.0 mph 87 % 0.00 in 0 W/m2
00:06 50.7 °F 47.0 °F 30.10 in ESE 1.0 mph 4.0 mph 87 % 0.00 in 0 W/m2
00:11 50.7 °F 47.0 °F 30.10 in ESE 1.0 mph 4.0 mph 87 % 0.00 in 0 W/m2
00:16 50.7 °F 47.0 °F 30.10 in Calm   3.0 mph 87 % 0.00 in 0 W/m2
00:21 50.7 °F 47.0 °F 30.10 in ESE 1.0 mph 3.0 mph 87 % 0.00 in 0 W/m2
00:26 51.1 °F 47.6 °F 30.10 in ESE 2.0 mph 5.0 mph 88 % 0.00 in 0 W/m2
00:31 51.4 °F 47.7 °F 30.10 in ESE 2.0 mph 5.0 mph 87 % 0.00 in 0 W/m2
00:36 51.4 °F 47.7 °F 30.10 in ESE 2.0 mph 5.0 mph 87 % 0.00 in 0 W/m2
00:41 51.6 °F 47.9 °F 30.10 in ESE 2.0 mph 5.0 mph 87 % 0.00 in 0 W/m2
00:46 51.6 °F 47.6 °F 30.10 in ESE 1.0 mph 5.0 mph 86 % 0.00 in 0 W/m2
00:51 51.4 °F 47.1 °F 30.09 in ESE 1.0 mph 5.0 mph 85 % 0.00 in 0 W/m2
00:56 51.1 °F 46.7 °F 30.09 in Calm   5.0 mph 85 % 0.00 in 0 W/m2
01:01 50.5 °F 46.2 °F 30.09 in Calm     85 % 0.00 in 0 W/m2
01:06 50.2 °F 46.2 °F 30.09 in Calm     86 % 0.00 in 0 W/m2
01:11 49.6 °F 45.6 °F 30.09 in Calm     86 % 0.00 in 0 W/m2
01:16 49.5 °F 45.4 °F 30.09 in Calm   3.0 mph 86 % 0.00 in 0 W/m2
01:21 49.5 °F 46.1 °F 30.09 in ESE 1.0 mph 4.0 mph 88 % 0.00 in 0 W/m2
01:26 49.6 °F 46.8 °F 30.09 in ESE 2.0 mph 5.0 mph 90 % 0.00 in 0 W/m2
01:31 49.8 °F 47.0 °F 30.09 in ESE 3.0 mph 6.0 mph 90 % 0.00 in 0 W/m2
01:36 50.0 °F 47.2 °F 30.08 in ESE 2.0 mph 6.0 mph 90 % 0.00 in 0 W/m2
01:41 50.2 °F 47.4 °F 30.08 in ESE 2.0 mph 5.0 mph 90 % 0.00 in 0 W/m2
01:46 50.4 °F 47.5 °F 30.08 in ESE 2.0 mph 5.0 mph 90 % 0.00 in 0 W/m2
01:51 50.5 °F 47.7 °F 30.08 in ESE 2.0 mph 5.0 mph 90 % 0.00 in 0 W/m2
01:56 50.7 °F 47.9 °F 30.08 in ESE 2.0 mph 5.0 mph 90 % 0.00 in 0 W/m2
02:01 50.7 °F 47.9 °F 30.08 in ESE 1.0 mph 5.0 mph 90 % 0.00 in 0 W/m2
02:06 50.9 °F 48.1 °F 30.08 in ESE 1.0 mph 5.0 mph 90 % 0.00 in 0 W/m2
02:11 50.9 °F 47.8 °F 30.08 in ESE 2.0 mph 6.0 mph 89 % 0.00 in 0 W/m2
02:16 50.7 °F 47.6 °F 30.08 in ESE 2.0 mph 6.0 mph 89 % 0.00 in 0 W/m2
02:21 50.7 °F 47.6 °F 30.07 in ESE 3.0 mph 6.0 mph 89 % 0.00 in 0 W/m2
02:26 50.5 °F 47.4 °F 30.08 in SE 4.0 mph 7.0 mph 89 % 0.00 in 0 W/m2
02:32 50.5 °F 47.4 °F 30.07 in SE 4.0 mph 8.0 mph 89 % 0.00 in 0 W/m2
02:37 50.5 °F 47.7 °F 30.07 in SE 4.0 mph 8.0 mph 90 % 0.00 in 0 W/m2
02:42 50.5 °F 47.7 °F 30.07 in SE 4.0 mph 7.0 mph 90 % 0.00 in 0 W/m2
02:47 50.5 °F 47.7 °F 30.07 in SE 4.0 mph 7.0 mph 90 % 0.00 in 0 W/m2
02:52 50.4 °F 47.5 °F 30.07 in ESE 2.0 mph 6.0 mph 90 % 0.00 in 0 W/m2
02:57 50.4 °F 47.5 °F 30.07 in ESE 1.0 mph 6.0 mph 90 % 0.00 in 0 W/m2
03:02 50.4 °F 47.5 °F 30.07 in Calm   6.0 mph 90 % 0.00 in 0 W/m2
03:07 50.4 °F 47.5 °F 30.07 in Calm   1.0 mph 90 % 0.00 in 0 W/m2
03:12 50.4 °F 47.5 °F 30.07 in Calm   2.0 mph 90 % 0.00 in 0 W/m2
03:17 50.2 °F 47.4 °F 30.07 in Calm   2.0 mph 90 % 0.00 in 0 W/m2
03:22 50.2 °F 47.4 °F 30.07 in Calm   1.0 mph 90 % 0.00 in 0 W/m2
03:27 50.0 °F 47.2 °F 30.07 in Calm   1.0 mph 90 % 0.00 in 0 W/m2
03:32 50.0 °F 47.2 °F 30.07 in Calm   1.0 mph 90 % 0.00 in 0 W/m2
03:37 50.0 °F 47.5 °F 30.06 in Calm   2.0 mph 91 % 0.00 in 0 W/m2
03:42 50.0 °F 47.5 °F 30.06 in ESE 1.0 mph 6.0 mph 91 % 0.00 in 0 W/m2
03:47 50.0 °F 47.5 °F 30.06 in ESE 2.0 mph 6.0 mph 91 % 0.00 in 0 W/m2
03:52 49.8 °F 47.3 °F 30.06 in SSE 1.0 mph 4.0 mph 91 % 0.00 in 0 W/m2
03:57 49.8 °F 47.3 °F 30.06 in SSE 1.0 mph 4.0 mph 91 % 0.00 in 0 W/m2
04:02 49.8 °F 47.3 °F 30.06 in Calm   2.0 mph 91 % 0.00 in 0 W/m2
04:08 49.8 °F 47.3 °F 30.05 in Calm   2.0 mph 91 % 0.00 in 0 W/m2
04:13 49.8 °F 47.3 °F 30.05 in Calm   3.0 mph 91 % 0.00 in 0 W/m2
04:18 49.8 °F 47.6 °F 30.05 in Calm   3.0 mph 92 % 0.00 in 0 W/m2
04:23 49.8 °F 47.3 °F 30.05 in Calm   2.0 mph 91 % 0.00 in 0 W/m2
04:28 49.8 °F 47.3 °F 30.04 in Calm   5.0 mph 91 % 0.00 in 0 W/m2
04:33 49.8 °F 47.6 °F 30.05 in Calm   5.0 mph 92 % 0.00 in 0 W/m2
04:38 49.8 °F 47.6 °F 30.04 in Calm   1.0 mph 92 % 0.00 in 0 W/m2
04:43 49.8 °F 47.6 °F 30.04 in Calm   2.0 mph 92 % 0.00 in 0 W/m2
04:48 49.6 °F 47.1 °F 30.04 in Calm   2.0 mph 91 % 0.00 in 0 W/m2
04:53 49.5 °F 46.9 °F 30.04 in Calm     91 % 0.00 in 0 W/m2
04:58 49.5 °F 46.9 °F 30.04 in Calm   1.0 mph 91 % 0.00 in 0 W/m2
05:03 49.3 °F 46.8 °F 30.04 in Calm   1.0 mph 91 % 0.00 in 0 W/m2
05:08 49.3 °F 47.1 °F 30.04 in Calm     92 % 0.00 in 7 W/m2
05:13 49.3 °F 47.1 °F 30.04 in Calm     92 % 0.00 in 9 W/m2
05:18 49.1 °F 46.9 °F 30.04 in Calm   1.0 mph 92 % 0.00 in 12 W/m2
05:23 49.1 °F 46.9 °F 30.04 in Calm   1.0 mph 92 % 0.00 in 16 W/m2
05:28 49.1 °F 46.9 °F 30.04 in South 1.0 mph 3.0 mph 92 % 0.00 in 19 W/m2
05:33 49.1 °F 46.9 °F 30.04 in South 1.0 mph 4.0 mph 92 % 0.00 in 21 W/m2
05:38 48.9 °F 46.7 °F 30.04 in South 1.0 mph 4.0 mph 92 % 0.00 in 25 W/m2
05:43 48.9 °F 46.7 °F 30.04 in Calm   1.0 mph 92 % 0.00 in 30 W/m2
05:48 48.9 °F 47.0 °F 30.04 in Calm     93 % 0.00 in 32 W/m2
05:53 48.9 °F 47.0 °F 30.04 in Calm     93 % 0.00 in 35 W/m2
05:58 48.9 °F 47.0 °F 30.04 in Calm   2.0 mph 93 % 0.00 in 39 W/m2
06:03 48.9 °F 47.0 °F 30.04 in Calm   3.0 mph 93 % 0.00 in 67 W/m2
06:08 49.1 °F 47.2 °F 30.04 in Calm   3.0 mph 93 % 0.00 in 79 W/m2
06:13 49.5 °F 47.8 °F 30.03 in South 1.0 mph 4.0 mph 94 % 0.00 in 102 W/m2
06:18 49.6 °F 47.7 °F 30.03 in South 1.0 mph 4.0 mph 93 % 0.00 in 39 W/m2
06:23 49.8 °F 47.9 °F 30.03 in South 2.0 mph 5.0 mph 93 % 0.00 in 60 W/m2
06:28 50.4 °F 48.4 °F 30.03 in SSE 3.0 mph 6.0 mph 93 % 0.00 in 58 W/m2
06:33 50.5 °F 48.6 °F 30.03 in SSE 3.0 mph 6.0 mph 93 % 0.00 in 44 W/m2
06:38 50.7 °F 48.5 °F 30.03 in SSE 4.0 mph 6.0 mph 92 % 0.00 in 51 W/m2
06:43 50.9 °F 48.4 °F 30.03 in SSE 3.0 mph 6.0 mph 91 % 0.00 in 56 W/m2
06:49 51.1 °F 48.5 °F 30.03 in SSE 3.0 mph 6.0 mph 91 % 0.00 in 62 W/m2
06:54 51.3 °F 48.7 °F 30.03 in SSE 3.0 mph 6.0 mph 91 % 0.00 in 63 W/m2
06:59 51.4 °F 48.6 °F 30.03 in SSE 2.0 mph 4.0 mph 90 % 0.00 in 54 W/m2
07:04 51.4 °F 48.6 °F 30.03 in SSE 1.0 mph 4.0 mph 90 % 0.00 in 53 W/m2
07:09 51.6 °F 48.8 °F 30.03 in Calm   2.0 mph 90 % 0.00 in 100 W/m2
07:14 52.0 °F 49.1 °F 30.03 in South 1.0 mph 5.0 mph 90 % 0.00 in 118 W/m2
07:19 52.2 °F 49.0 °F 30.03 in South 2.0 mph 5.0 mph 89 % 0.00 in 134 W/m2
07:24 52.3 °F 48.9 °F 30.03 in South 3.0 mph 6.0 mph 88 % 0.00 in 127 W/m2
07:29 52.3 °F 48.9 °F 30.03 in South 3.0 mph 6.0 mph 88 % 0.00 in 155 W/m2
07:34 52.5 °F 49.1 °F 30.03 in South 2.0 mph 5.0 mph 88 % 0.00 in 174 W/m2
07:39 52.9 °F 49.4 °F 30.03 in South 2.0 mph 5.0 mph 88 % 0.00 in 264 W/m2
07:44 53.2 °F 49.5 °F 30.03 in South 1.0 mph 5.0 mph 87 % 0.00 in 223 W/m2
07:49 53.8 °F 49.7 °F 30.03 in South 1.0 mph 5.0 mph 86 % 0.00 in 195 W/m2
07:54 54.1 °F 50.0 °F 30.02 in SSE 2.0 mph 5.0 mph 86 % 0.00 in 167 W/m2
07:59 54.1 °F 49.7 °F 30.02 in SSE 2.0 mph 6.0 mph 85 % 0.00 in 206 W/m2
08:04 54.3 °F 50.2 °F 30.02 in SSE 1.0 mph 6.0 mph 86 % 0.00 in 192 W/m2
08:09 54.9 °F 50.1 °F 30.02 in SSE 2.0 mph 8.0 mph 84 % 0.00 in 176 W/m2
08:14 55.0 °F 50.3 °F 30.02 in SSE 4.0 mph 8.0 mph 84 % 0.00 in 128 W/m2
08:19 55.0 °F 50.0 °F 30.02 in SE 5.0 mph 9.0 mph 83 % 0.00 in 123 W/m2
08:24 55.2 °F 50.1 °F 30.02 in SE 3.0 mph 9.0 mph 83 % 0.00 in 125 W/m2
08:29 55.2 °F 50.1 °F 30.02 in SSE 2.0 mph 7.0 mph 83 % 0.00 in 121 W/m2
08:32 55.2 °F 50.1 °F 30.02 in SSE 2.0 mph 7.0 mph 83 % 0.00 in 141 W/m2
08:37 55.6 °F 50.5 °F 30.01 in SSE 1.0 mph 5.0 mph 83 % 0.00 in 332 W/m2
08:42 55.9 °F 50.9 °F 30.02 in SSE 2.0 mph 6.0 mph 83 % 0.00 in 494 W/m2
08:47 56.8 °F 51.4 °F 30.01 in SSE 3.0 mph 6.0 mph 82 % 0.00 in 469 W/m2
08:52 57.7 °F 51.6 °F 30.01 in SE 4.0 mph 7.0 mph 80 % 0.00 in 534 W/m2
08:57 58.3 °F 51.8 °F 30.02 in SE 4.0 mph 8.0 mph 79 % 0.00 in 476 W/m2
09:02 58.8 °F 52.3 °F 30.01 in SE 4.0 mph 8.0 mph 79 % 0.00 in 304 W/m2
09:07 59.4 °F 52.5 °F 30.01 in ESE 3.0 mph 7.0 mph 78 % 0.00 in 475 W/m2
09:08 59.4 °F 52.5 °F 30.01 in ESE 3.0 mph 7.0 mph 78 % 0.00 in 563 W/m2
09:13 59.7 °F 52.5 °F 30.01 in SE 5.0 mph 10.0 mph 77 % 0.00 in 548 W/m2
09:18 60.4 °F 52.8 °F 30.01 in SE 6.0 mph 10.0 mph 76 % 0.00 in 608 W/m2
09:23 61.0 °F 52.6 °F 30.01 in SE 7.0 mph 11.0 mph 74 % 0.00 in 471 W/m2
09:28 61.2 °F 52.8 °F 30.00 in SE 7.0 mph 11.0 mph 74 % 0.00 in 452 W/m2
09:34 61.5 °F 52.8 °F 30.00 in SE 7.0 mph 12.0 mph 73 % 0.00 in 538 W/m2
09:39 61.7 °F 52.6 °F 30.00 in SSE 7.0 mph 12.0 mph 72 % 0.00 in 434 W/m2
09:44 61.9 °F 52.4 °F 30.00 in SE 8.0 mph 14.0 mph 71 % 0.00 in 480 W/m2
09:49 62.1 °F 52.5 °F 30.00 in SE 8.0 mph 14.0 mph 71 % 0.00 in 355 W/m2
09:54 62.1 °F 52.5 °F 30.00 in SE 8.0 mph 12.0 mph 71 % 0.00 in 427 W/m2
09:59 62.1 °F 52.5 °F 30.00 in SE 8.0 mph 12.0 mph 71 % 0.00 in 350 W/m2
10:04 62.1 °F 52.5 °F 30.00 in SSE 7.0 mph 12.0 mph 71 % 0.00 in 497 W/m2
10:09 62.4 °F 52.9 °F 30.00 in SSE 7.0 mph 12.0 mph 71 % 0.00 in 517 W/m2
10:14 63.0 °F 53.4 °F 30.00 in SE 6.0 mph 12.0 mph 71 % 0.00 in 599 W/m2
10:19 63.7 °F 53.7 °F 29.99 in SSE 6.0 mph 11.0 mph 70 % 0.00 in 656 W/m2
10:24 64.0 °F 53.3 °F 29.98 in SE 8.0 mph 16.0 mph 68 % 0.00 in 533 W/m2
10:29 64.4 °F 53.6 °F 29.99 in SE 9.0 mph 16.0 mph 68 % 0.00 in 462 W/m2
10:34 64.4 °F 53.2 °F 29.98 in SE 8.0 mph 14.0 mph 67 % 0.00 in 487 W/m2
10:39 64.6 °F 53.4 °F 29.98 in SE 8.0 mph 15.0 mph 67 % 0.00 in 353 W/m2
10:44 64.6 °F 53.0 °F 29.99 in SSE 8.0 mph 15.0 mph 66 % 0.00 in 330 W/m2
10:49 64.6 °F 53.0 °F 29.98 in SSE 9.0 mph 15.0 mph 66 % 0.00 in 334 W/m2
10:54 64.6 °F 53.0 °F 29.98 in SE 9.0 mph 14.0 mph 66 % 0.00 in 315 W/m2
10:59 64.6 °F 53.4 °F 29.98 in SE 8.0 mph 14.0 mph 67 % 0.00 in 304 W/m2
11:04 64.8 °F 53.5 °F 29.98 in SSE 7.0 mph 11.0 mph 67 % 0.00 in 299 W/m2
11:09 64.9 °F 53.3 °F 29.98 in SSE 6.0 mph 15.0 mph 66 % 0.00 in 297 W/m2
11:14 64.9 °F 52.5 °F 29.98 in SSE 8.0 mph 15.0 mph 64 % 0.00 in 304 W/m2
11:19 65.1 °F 52.6 °F 29.98 in SSE 9.0 mph 16.0 mph 64 % 0.00 in 306 W/m2
11:24 65.3 °F 52.8 °F 29.98 in SSE 8.0 mph 16.0 mph 64 % 0.00 in 396 W/m2
11:25 65.5 °F 53.0 °F 29.98 in SSE 8.0 mph 16.0 mph 64 % 0.00 in 410 W/m2
11:30 65.7 °F 52.7 °F 29.98 in South 7.0 mph 13.0 mph 63 % 0.00 in 367 W/m2
11:35 65.8 °F 53.3 °F 29.98 in South 6.0 mph 12.0 mph 64 % 0.00 in 325 W/m2
11:40 66.2 °F 53.2 °F 29.98 in South 6.0 mph 15.0 mph 63 % 0.00 in 309 W/m2
11:45 66.4 °F 53.0 °F 29.97 in SSE 8.0 mph 15.0 mph 62 % 0.00 in 332 W/m2
11:50 66.4 °F 52.1 °F 29.97 in SSE 10.0 mph 21.0 mph 60 % 0.00 in 353 W/m2
11:55 66.6 °F 52.2 °F 29.97 in SSE 10.0 mph 21.0 mph 60 % 0.00 in 469 W/m2
12:00 66.7 °F 52.4 °F 29.97 in South 9.0 mph 19.0 mph 60 % 0.00 in 439 W/m2
12:05 67.3 °F 52.9 °F 29.97 in South 8.0 mph 16.0 mph 60 % 0.00 in 1032 W/m2
12:10 67.8 °F 52.5 °F 29.97 in South 10.0 mph 19.0 mph 58 % 0.00 in 536 W/m2
12:15 67.8 °F 52.5 °F 29.96 in South 10.0 mph 19.0 mph 58 % 0.00 in 445 W/m2
12:20 67.8 °F 53.0 °F 29.96 in South 9.0 mph 18.0 mph 59 % 0.00 in 526 W/m2
12:25 68.2 °F 52.8 °F 29.96 in South 9.0 mph 19.0 mph 58 % 0.00 in 1046 W/m2
12:30 68.7 °F 53.8 °F 29.96 in South 9.0 mph 19.0 mph 59 % 0.00 in 617 W/m2
12:36 69.3 °F 53.4 °F 29.95 in South 9.0 mph 19.0 mph 57 % 0.00 in 761 W/m2
12:41 69.4 °F 53.5 °F 29.95 in SSE 10.0 mph 19.0 mph 57 % 0.00 in 784 W/m2
12:46 70.0 °F 53.6 °F 29.95 in South 10.0 mph 20.0 mph 56 % 0.00 in 981 W/m2
12:51 70.2 °F 53.2 °F 29.95 in South 10.0 mph 20.0 mph 55 % 0.00 in 909 W/m2
12:56 70.3 °F 53.9 °F 29.94 in SSE 9.0 mph 16.0 mph 56 % 0.00 in 893 W/m2
13:01 70.5 °F 53.1 °F 29.94 in SSE 9.0 mph 20.0 mph 54 % 0.00 in 431 W/m2
13:06 70.5 °F 53.1 °F 29.94 in South 10.0 mph 20.0 mph 54 % 0.00 in 837 W/m2
13:11 70.5 °F 52.6 °F 29.95 in South 10.0 mph 21.0 mph 53 % 0.00 in 874 W/m2
13:16 70.3 °F 51.9 °F 29.94 in South 11.0 mph 21.0 mph 52 % 0.00 in 740 W/m2
13:21 70.2 °F 52.7 °F 29.94 in SSW 12.0 mph 21.0 mph 54 % 0.00 in 547 W/m2
13:26 70.3 °F 52.4 °F 29.94 in South 12.0 mph 19.0 mph 53 % 0.00 in 482 W/m2
13:31 70.3 °F 52.4 °F 29.94 in South 10.0 mph 20.0 mph 53 % 0.00 in 663 W/m2
13:36 70.3 °F 52.4 °F 29.94 in South 10.0 mph 20.0 mph 53 % 0.00 in 420 W/m2
13:41 70.3 °F 52.4 °F 29.93 in South 10.0 mph 19.0 mph 53 % 0.00 in 434 W/m2
13:46 70.0 °F 52.1 °F 29.93 in SSE 11.0 mph 23.0 mph 53 % 0.00 in 503 W/m2
13:51 69.8 °F 52.4 °F 29.93 in SSE 12.0 mph 23.0 mph 54 % 0.00 in 475 W/m2
13:56 70.0 °F 52.6 °F 29.93 in SSE 10.0 mph 20.0 mph 54 % 0.00 in 573 W/m2
14:01 70.0 °F 53.1 °F 29.93 in SSE 10.0 mph 19.0 mph 55 % 0.00 in 577 W/m2
14:06 70.3 °F 52.4 °F 29.93 in South 11.0 mph 21.0 mph 53 % 0.00 in 489 W/m2
14:11 70.3 °F 51.9 °F 29.93 in South 11.0 mph 21.0 mph 52 % 0.00 in 459 W/m2
14:16 70.3 °F 52.4 °F 29.93 in SSE 11.0 mph 22.0 mph 53 % 0.00 in 710 W/m2
14:22 70.5 °F 53.1 °F 29.93 in South 10.0 mph 22.0 mph 54 % 0.00 in 663 W/m2
14:27 70.7 °F 52.7 °F 29.93 in South 10.0 mph 21.0 mph 53 % 0.00 in 638 W/m2
14:32 70.9 °F 52.9 °F 29.92 in South 11.0 mph 21.0 mph 53 % 0.00 in 487 W/m2
14:37 70.9 °F 52.9 °F 29.92 in South 11.0 mph 19.0 mph 53 % 0.00 in 487 W/m2
14:42 70.7 °F 52.2 °F 29.92 in South 10.0 mph 19.0 mph 52 % 0.00 in 564 W/m2
14:46 70.7 °F 52.2 °F 29.92 in South 10.0 mph 19.0 mph 52 % 0.00 in 571 W/m2
14:51 70.7 °F 53.2 °F 29.92 in South 10.0 mph 19.0 mph 54 % 0.00 in 571 W/m2
14:56 71.1 °F 53.1 °F 29.92 in South 9.0 mph 26.0 mph 53 % 0.00 in 649 W/m2
15:01 71.2 °F 52.7 °F 29.91 in South 10.0 mph 26.0 mph 52 % 0.00 in 773 W/m2
15:06 71.4 °F 52.3 °F 29.91 in SSE 11.0 mph 20.0 mph 51 % 0.00 in 571 W/m2
15:11 71.4 °F 51.8 °F 29.91 in SE 13.0 mph 23.0 mph 50 % 0.00 in 439 W/m2
15:16 71.2 °F 52.7 °F 29.91 in SE 11.0 mph 23.0 mph 52 % 0.00 in 439 W/m2
15:21 71.4 °F 51.8 °F 29.91 in South 10.0 mph 18.0 mph 50 % 0.00 in 526 W/m2
15:27 71.2 °F 52.7 °F 29.91 in SSW 8.0 mph 18.0 mph 52 % 0.00 in 406 W/m2
15:32 71.2 °F 52.7 °F 29.90 in South 8.0 mph 16.0 mph 52 % 0.00 in 336 W/m2
15:37 71.1 °F 52.5 °F 29.91 in SSE 9.0 mph 15.0 mph 52 % 0.00 in 329 W/m2
15:42 71.1 °F 52.5 °F 29.90 in South 8.0 mph 15.0 mph 52 % 0.00 in 371 W/m2
15:47 71.1 °F 52.0 °F 29.90 in SSW 8.0 mph 18.0 mph 51 % 0.00 in 406 W/m2
15:52 71.1 °F 52.0 °F 29.90 in SSW 10.0 mph 18.0 mph 51 % 0.00 in 471 W/m2
15:57 71.1 °F 52.0 °F 29.90 in South 10.0 mph 18.0 mph 51 % 0.00 in 383 W/m2
16:02 71.1 °F 52.0 °F 29.90 in South 10.0 mph 20.0 mph 51 % 0.00 in 424 W/m2
16:07 71.1 °F 52.5 °F 29.90 in South 9.0 mph 20.0 mph 52 % 0.00 in 408 W/m2
16:12 71.2 °F 52.7 °F 29.90 in South 8.0 mph 16.0 mph 52 % 0.00 in 501 W/m2
16:17 71.8 °F 53.2 °F 29.90 in South 8.0 mph 15.0 mph 52 % 0.00 in 330 W/m2
16:22 71.6 °F 53.0 °F 29.89 in SSW 9.0 mph 15.0 mph 52 % 0.00 in 427 W/m2
16:27 71.8 °F 53.2 °F 29.89 in SSW 9.0 mph 15.0 mph 52 % 0.00 in 838 W/m2
16:32 72.0 °F 52.8 °F 29.89 in SSW 9.0 mph 16.0 mph 51 % 0.00 in 401 W/m2
16:37 71.8 °F 52.7 °F 29.89 in South 9.0 mph 19.0 mph 51 % 0.00 in 555 W/m2
16:42 71.6 °F 53.0 °F 29.89 in South 10.0 mph 19.0 mph 52 % 0.00 in 199 W/m2
16:47 71.6 °F 53.0 °F 29.88 in South 8.0 mph 15.0 mph 52 % 0.00 in 267 W/m2
16:52 71.2 °F 52.2 °F 29.88 in South 10.0 mph 21.0 mph 51 % 0.00 in 278 W/m2
16:57 71.2 °F 52.2 °F 29.88 in SSW 11.0 mph 21.0 mph 51 % 0.00 in 251 W/m2
16:59 71.2 °F 53.2 °F 29.88 in SSW 10.0 mph 21.0 mph 53 % 0.00 in 251 W/m2
17:04 71.4 °F 52.9 °F 29.88 in SSW 8.0 mph 18.0 mph 52 % 0.00 in 747 W/m2
17:09 72.0 °F 53.4 °F 29.88 in South 8.0 mph 16.0 mph 52 % 0.00 in 587 W/m2
17:14 72.3 °F 53.2 °F 29.88 in South 8.0 mph 16.0 mph 51 % 0.00 in 557 W/m2
17:19 72.3 °F 53.2 °F 29.88 in South 9.0 mph 16.0 mph 51 % 0.00 in 566 W/m2
17:24 72.3 °F 53.2 °F 29.87 in South 10.0 mph 16.0 mph 51 % 0.00 in 543 W/m2
17:29 72.1 °F 53.0 °F 29.87 in SSW 11.0 mph 22.0 mph 51 % 0.00 in 534 W/m2
17:34 72.0 °F 53.4 °F 29.87 in SW 11.0 mph 22.0 mph 52 % 0.00 in 554 W/m2
17:39 72.1 °F 54.1 °F 29.87 in SW 10.0 mph 15.0 mph 53 % 0.00 in 570 W/m2
17:44 72.3 °F 53.7 °F 29.87 in SSW 10.0 mph 21.0 mph 52 % 0.00 in 552 W/m2
17:49 72.3 °F 53.7 °F 29.87 in SSW 10.0 mph 21.0 mph 52 % 0.00 in 577 W/m2
17:54 72.7 °F 54.6 °F 29.87 in SSW 9.0 mph 18.0 mph 53 % 0.00 in 223 W/m2
17:59 72.5 °F 54.4 °F 29.87 in SSW 8.0 mph 18.0 mph 53 % 0.00 in 281 W/m2
18:04 72.1 °F 54.6 °F 29.87 in SSW 10.0 mph 20.0 mph 54 % 0.00 in 236 W/m2
18:09 71.8 °F 54.2 °F 29.87 in SW 12.0 mph 21.0 mph 54 % 0.00 in 462 W/m2
18:14 72.1 °F 54.6 °F 29.87 in SSW 11.0 mph 21.0 mph 54 % 0.00 in 311 W/m2
18:19 72.0 °F 53.4 °F 29.86 in SSW 10.0 mph 20.0 mph 52 % 0.00 in 146 W/m2
18:24 71.6 °F 53.6 °F 29.86 in SSW 10.0 mph 20.0 mph 53 % 0.00 in 67 W/m2
18:29 71.2 °F 53.2 °F 29.86 in SSW 9.0 mph 18.0 mph 53 % 0.00 in 84 W/m2
18:34 71.1 °F 53.1 °F 29.86 in SSW 10.0 mph 18.0 mph 53 % 0.00 in 91 W/m2
18:39 70.9 °F 52.9 °F 29.86 in SSW 10.0 mph 16.0 mph 53 % 0.00 in 95 W/m2
18:44 70.9 °F 52.9 °F 29.86 in SW 9.0 mph 14.0 mph 53 % 0.00 in 88 W/m2
18:49 70.9 °F 53.4 °F 29.86 in SW 8.0 mph 14.0 mph 54 % 0.00 in 72 W/m2
18:54 70.7 °F 53.2 °F 29.86 in SW 7.0 mph 11.0 mph 54 % 0.00 in 62 W/m2
18:59 70.5 °F 52.6 °F 29.86 in SW 8.0 mph 18.0 mph 53 % 0.00 in 69 W/m2
19:04 70.5 °F 52.0 °F 29.86 in SSW 9.0 mph 18.0 mph 52 % 0.00 in 46 W/m2
19:09 70.3 °F 51.9 °F 29.86 in SSW 8.0 mph 15.0 mph 52 % 0.00 in 47 W/m2
19:15 70.3 °F 52.4 °F 29.86 in SSW 8.0 mph 13.0 mph 53 % 0.00 in 49 W/m2
19:20 70.2 °F 52.2 °F 29.86 in SSW 8.0 mph 13.0 mph 53 % 0.00 in 58 W/m2
19:25 70.0 °F 52.6 °F 29.86 in SW 8.0 mph 14.0 mph 54 % 0.00 in 53 W/m2
19:27 70.0 °F 52.6 °F 29.86 in SW 8.0 mph 14.0 mph 54 % 0.00 in 53 W/m2
19:30 70.0 °F 52.6 °F 29.86 in SW 7.0 mph 14.0 mph 54 % 0.00 in 44 W/m2
19:35 70.0 °F 52.6 °F 29.86 in SW 7.0 mph 13.0 mph 54 % 0.00 in 40 W/m2
19:40 69.6 °F 52.7 °F 29.86 in SW 8.0 mph 13.0 mph 55 % 0.00 in 30 W/m2
19:45 69.6 °F 52.7 °F 29.86 in SW 8.0 mph 14.0 mph 55 % 0.00 in 26 W/m2
19:50 69.4 °F 53.1 °F 29.86 in SW 8.0 mph 16.0 mph 56 % 0.00 in 32 W/m2
19:55 69.3 °F 52.9 °F 29.86 in SSW 9.0 mph 16.0 mph 56 % 0.00 in 33 W/m2
20:00 69.3 °F 53.4 °F 29.86 in SW 8.0 mph 14.0 mph 57 % 0.00 in 37 W/m2
20:05 69.1 °F 53.2 °F 29.86 in SW 8.0 mph 12.0 mph 57 % 0.00 in 33 W/m2
20:10 68.9 °F 53.5 °F 29.86 in SW 7.0 mph 12.0 mph 58 % 0.00 in 21 W/m2
20:15 68.7 °F 53.3 °F 29.86 in SW 6.0 mph 9.0 mph 58 % 0.00 in 18 W/m2
20:20 68.5 °F 53.6 °F 29.86 in SW 6.0 mph 9.0 mph 59 % 0.00 in 12 W/m2
20:25 68.4 °F 53.5 °F 29.87 in SW 6.0 mph 9.0 mph 59 % 0.00 in 11 W/m2
20:30 68.2 °F 54.7 °F 29.87 in WSW 6.0 mph 11.0 mph 62 % 0.00 in 9 W/m2
20:35 67.8 °F 56.0 °F 29.88 in West 7.0 mph 13.0 mph 66 % 0.00 in 9 W/m2
20:40 67.1 °F 56.2 °F 29.88 in WNW 9.0 mph 20.0 mph 68 % 0.00 in 14 W/m2
20:46 66.4 °F 56.3 °F 29.88 in WNW 9.0 mph 20.0 mph 70 % 0.00 in 11 W/m2
20:51 65.8 °F 56.2 °F 29.88 in WNW 8.0 mph 14.0 mph 71 % 0.00 in 11 W/m2
20:56 65.1 °F 56.2 °F 29.89 in WNW 7.0 mph 14.0 mph 73 % 0.00 in 11 W/m2
21:01 64.8 °F 56.3 °F 29.89 in WNW 6.0 mph 11.0 mph 74 % 0.00 in 9 W/m2
21:06 64.4 °F 56.3 °F 29.89 in WNW 5.0 mph 9.0 mph 75 % 0.00 in 7 W/m2
21:11 64.0 °F 56.3 °F 29.89 in WNW 5.0 mph 9.0 mph 76 % 0.00 in 5 W/m2
21:16 63.7 °F 56.3 °F 29.89 in WNW 4.0 mph 8.0 mph 77 % 0.00 in 0 W/m2
21:21 63.3 °F 56.3 °F 29.90 in WNW 5.0 mph 9.0 mph 78 % 0.00 in 0 W/m2
21:26 63.0 °F 56.0 °F 29.90 in WNW 6.0 mph 10.0 mph 78 % 0.00 in 0 W/m2
21:31 62.4 °F 55.8 °F 29.90 in WNW 6.0 mph 10.0 mph 79 % 0.00 in 0 W/m2
21:36 62.2 °F 56.0 °F 29.90 in WNW 6.0 mph 10.0 mph 80 % 0.00 in 0 W/m2
21:46 61.9 °F 55.6 °F 29.90 in WNW 7.0 mph 12.0 mph 80 % 0.00 in 0 W/m2
21:51 61.5 °F 55.6 °F 29.90 in WNW 7.0 mph 12.0 mph 81 % 0.00 in 0 W/m2
21:56 61.3 °F 55.5 °F 29.90 in WNW 6.0 mph 10.0 mph 81 % 0.00 in 0 W/m2
22:01 61.0 °F 55.1 °F 29.90 in WNW 6.0 mph 10.0 mph 81 % 0.00 in 0 W/m2
22:06 60.6 °F 54.8 °F 29.91 in WNW 7.0 mph 13.0 mph 81 % 0.00 in 0 W/m2
22:11 60.4 °F 54.6 °F 29.90 in WNW 8.0 mph 13.0 mph 81 % 0.00 in 0 W/m2
22:16 60.3 °F 54.4 °F 29.91 in WNW 8.0 mph 12.0 mph 81 % 0.00 in 0 W/m2
22:21 59.9 °F 54.1 °F 29.91 in WNW 8.0 mph 12.0 mph 81 % 0.00 in 0 W/m2
22:26 59.7 °F 53.9 °F 29.91 in WNW 8.0 mph 13.0 mph 81 % 0.00 in 0 W/m2
22:31 59.5 °F 53.7 °F 29.91 in WNW 7.0 mph 13.0 mph 81 % 0.00 in 0 W/m2
22:36 59.2 °F 53.7 °F 29.91 in West 6.0 mph 10.0 mph 82 % 0.00 in 0 W/m2
22:41 58.8 °F 53.7 °F 29.91 in West 6.0 mph 12.0 mph 83 % 0.00 in 0 W/m2
22:46 58.5 °F 53.3 °F 29.91 in West 7.0 mph 12.0 mph 83 % 0.00 in 0 W/m2
22:51 58.3 °F 53.1 °F 29.91 in West 8.0 mph 11.0 mph 83 % 0.00 in 0 W/m2
22:56 58.1 °F 53.0 °F 29.92 in West 7.0 mph 10.0 mph 83 % 0.00 in 0 W/m2
23:01 57.9 °F 52.8 °F 29.92 in WNW 8.0 mph 14.0 mph 83 % 0.00 in 0 W/m2
23:06 58.1 °F 52.3 °F 29.92 in West 7.0 mph 14.0 mph 81 % 0.00 in 0 W/m2
23:11 57.9 °F 51.8 °F 29.92 in West 7.0 mph 11.0 mph 80 % 0.00 in 0 W/m2
23:16 57.7 °F 51.6 °F 29.93 in WNW 7.0 mph 11.0 mph 80 % 0.00 in 0 W/m2
23:21 57.6 °F 51.1 °F 29.93 in WNW 6.0 mph 10.0 mph 79 % 0.00 in 0 W/m2
23:26 57.4 °F 50.9 °F 29.93 in WNW 5.0 mph 10.0 mph 79 % 0.00 in 0 W/m2
23:27 57.4 °F 50.9 °F 29.93 in WNW 5.0 mph 10.0 mph 79 % 0.00 in 0 W/m2
23:32 57.0 °F 50.2 °F 29.93 in WNW 5.0 mph 10.0 mph 78 % 0.00 in 0 W/m2
23:37 56.8 °F 49.7 °F 29.93 in WNW 6.0 mph 10.0 mph 77 % 0.00 in 0 W/m2
23:42 56.7 °F 49.5 °F 29.93 in West 5.0 mph 10.0 mph 77 % 0.00 in 0 W/m2
23:47 56.5 °F 49.0 °F 29.93 in West 3.0 mph 9.0 mph 76 % 0.00 in 0 W/m2
23:52 56.1 °F 48.7 °F 29.93 in West 4.0 mph 9.0 mph 76 % 0.00 in 0 W/m2
23:57 55.9 °F 48.5 °F 29.93 in WNW 5.0 mph 9.0 mph 76 % 0.00 in 0 W/m2
Delerius-Weather
Compliments of Weather Underground - 2.25 mb

Data updates at regular intervals.